Harare, Zimbabwe
Current Conditions -  °F | °C
As of 10:00 AM on Sunday 23 Nov 2014 (Local Time) from FQCH Reporting Station
Clear Clear  
Wind Chill: 82°   Ceiling: Unl
Heat Index: 82°   Visibility: 6mi
Dew Point: 54°   Wind: 0mph
Humidity: 37%   Direction: NA
Pressure: 30.18"   Gusts: NA
Location:  17.82°S, 31.05°E
Report Text: FQCH 230800Z 00000KT CAVOK 28/12 Q1022
Loading
Personal Weather Stations






























Interactive Weather Map New forecast layout! Learn more

10-Day Weather Forecast

Advertisements
Track Severe Weather on mobile